createdAt,value
2018-05-26T00:00:12.694Z,7.68
2018-05-26T00:01:15.984Z,7.97
2018-05-26T00:02:19.205Z,7.53
2018-05-26T00:03:22.434Z,8.07
2018-05-26T00:04:25.723Z,6.55
2018-05-26T00:05:29.685Z,7.25
2018-05-26T00:06:32.925Z,7.75
2018-05-26T00:07:36.130Z,7.55
2018-05-26T00:08:39.343Z,8.15
2018-05-26T00:09:42.550Z,6.55
2018-05-26T00:10:45.785Z,7.80
2018-05-26T00:11:49.046Z,7.25
2018-05-26T00:12:52.297Z,7.45
2018-05-26T00:13:56.277Z,7.85
2018-05-26T00:14:59.530Z,7.75
2018-05-26T00:16:02.766Z,7.28
2018-05-26T00:17:06.770Z,8.07
2018-05-26T00:18:09.973Z,7.00
2018-05-26T00:19:13.192Z,7.20
2018-05-26T00:20:16.421Z,8.55
2018-05-26T00:21:19.671Z,7.32
2018-05-26T00:22:23.646Z,7.62
2018-05-26T00:23:26.865Z,8.13
2018-05-26T00:24:30.073Z,7.80
2018-05-26T00:25:33.318Z,7.65
2018-05-26T00:26:38.019Z,9.00
2018-05-26T00:27:41.244Z,8.07
2018-05-26T00:28:44.607Z,7.80
2018-05-26T00:29:48.583Z,7.95
2018-05-26T00:30:51.800Z,7.78
2018-05-26T00:31:55.052Z,7.10
2018-05-26T00:32:58.272Z,7.47
2018-05-26T00:34:01.483Z,7.37
2018-05-26T00:35:04.690Z,7.80
2018-05-26T00:36:08.708Z,8.23
2018-05-26T00:37:12.684Z,8.23
2018-05-26T00:38:15.879Z,8.27
2018-05-26T00:39:20.115Z,8.50
2018-05-26T00:40:24.113Z,7.37
2018-05-26T00:41:28.288Z,8.57
2018-05-26T00:42:31.765Z,8.13
2018-05-26T00:43:34.953Z,7.82
2018-05-26T00:44:38.255Z,7.22
2018-05-26T00:45:41.509Z,7.75
2018-05-26T00:46:44.701Z,7.80
2018-05-26T00:47:47.906Z,7.75
2018-05-26T00:48:51.912Z,7.57
2018-05-26T00:49:55.936Z,8.65
2018-05-26T00:50:59.189Z,7.00
2018-05-26T00:52:02.627Z,7.18
2018-05-26T00:53:05.861Z,7.12
2018-05-26T00:54:09.828Z,7.72
2018-05-26T00:55:13.037Z,7.60
2018-05-26T00:56:16.247Z,7.78
2018-05-26T00:57:19.537Z,7.32
2018-05-26T00:58:23.485Z,7.95
2018-05-26T00:59:26.905Z,7.80
2018-05-26T01:00:30.891Z,7.50
2018-05-26T01:01:34.130Z,7.90
2018-05-26T01:02:37.343Z,7.57
2018-05-26T01:03:42.059Z,7.30
2018-05-26T01:04:45.370Z,8.05
2018-05-26T01:05:49.369Z,8.40
2018-05-26T01:06:53.335Z,8.88
2018-05-26T01:07:56.579Z,7.82
2018-05-26T01:08:59.784Z,7.85
2018-05-26T01:10:03.002Z,7.97
2018-05-26T01:11:06.218Z,8.60
2018-05-26T01:12:09.465Z,8.32
2018-05-26T01:13:13.495Z,8.45
2018-05-26T01:14:17.514Z,7.78
2018-05-26T01:15:20.746Z,8.80
2018-05-26T01:16:23.980Z,8.65
2018-05-26T01:17:27.188Z,9.00
2018-05-26T01:18:30.393Z,8.45
2018-05-26T01:19:33.624Z,8.73
2018-05-26T01:20:36.841Z,8.65
2018-05-26T01:21:40.097Z,8.68
2018-05-26T01:22:43.351Z,8.77
2018-05-26T01:23:47.352Z,8.43
2018-05-26T01:24:51.331Z,9.65
2018-05-26T01:25:54.562Z,8.13
2018-05-26T01:26:58.561Z,9.25
2018-05-26T01:28:02.557Z,9.20
2018-05-26T01:29:05.779Z,8.00
2018-05-26T01:30:08.984Z,9.15
2018-05-26T01:31:12.990Z,8.77
2018-05-26T01:32:16.977Z,8.10
2018-05-26T01:33:20.212Z,8.07
2018-05-26T01:34:23.427Z,8.48
2018-05-26T01:35:26.661Z,9.50
2018-05-26T01:36:30.611Z,9.27
2018-05-26T01:37:34.711Z,9.38
2018-05-26T01:38:37.916Z,8.57
2018-05-26T01:39:41.144Z,8.63
2018-05-26T01:40:44.408Z,8.32
2018-05-26T01:41:48.387Z,8.48
2018-05-26T01:42:51.614Z,8.35
2018-05-26T01:43:54.821Z,8.25
2018-05-26T01:44:58.039Z,8.45
2018-05-26T01:46:02.293Z,8.93
2018-05-26T01:47:05.911Z,8.55
2018-05-26T01:48:09.086Z,8.75
2018-05-26T01:49:13.843Z,8.20
2018-05-26T01:50:17.831Z,7.90
2018-05-26T01:51:21.055Z,9.20
2018-05-26T01:52:24.274Z,7.87
2018-05-26T01:53:27.479Z,9.02
2018-05-26T01:54:30.701Z,8.55
2018-05-26T01:55:33.942Z,9.15
2018-05-26T01:56:37.971Z,8.18
2018-05-26T01:57:41.186Z,8.20
2018-05-26T01:58:44.403Z,8.45
2018-05-26T01:59:47.690Z,8.00
2018-05-26T02:00:50.904Z,9.13
2018-05-26T02:01:54.867Z,8.35
2018-05-26T02:02:58.088Z,7.68
2018-05-26T02:04:01.290Z,8.25
2018-05-26T02:05:04.503Z,7.15
2018-05-26T02:06:07.740Z,8.80
2018-05-26T02:07:11.716Z,8.32
2018-05-26T02:08:15.713Z,8.40
2018-05-26T02:09:19.691Z,8.45
2018-05-26T02:10:24.439Z,8.32
2018-05-26T02:11:28.493Z,8.10
2018-05-26T02:12:31.706Z,9.00
2018-05-26T02:13:34.924Z,8.48
2018-05-26T02:14:38.151Z,9.55
2018-05-26T02:15:42.145Z,8.02
2018-05-26T02:16:45.364Z,9.07
2018-05-26T02:17:49.357Z,8.38
2018-05-26T02:18:53.389Z,7.37
2018-05-26T02:19:56.673Z,8.50
2018-05-26T02:20:59.952Z,8.75
2018-05-26T02:22:03.950Z,8.23
2018-05-26T02:23:07.933Z,9.45
2018-05-26T02:24:11.902Z,9.10
2018-05-26T02:25:15.146Z,10.10
2018-05-26T02:26:18.430Z,9.38
2018-05-26T02:27:21.675Z,10.70
2018-05-26T02:28:24.890Z,11.55
2018-05-26T02:29:28.108Z,11.73
2018-05-26T02:30:31.331Z,11.70
2018-05-26T02:31:35.348Z,12.85
2018-05-26T02:32:39.339Z,11.12
2018-05-26T02:33:43.350Z,11.52
2018-05-26T02:34:47.326Z,11.60
2018-05-26T02:35:51.326Z,11.70
2018-05-26T02:36:54.548Z,11.35
2018-05-26T02:37:57.823Z,11.55
2018-05-26T02:39:01.060Z,9.85
2018-05-26T02:40:05.046Z,12.45
2018-05-26T02:41:08.263Z,10.27
2018-05-26T02:42:12.282Z,11.07
2018-05-26T02:43:16.264Z,10.73
2018-05-26T02:44:20.242Z,11.00
2018-05-26T02:45:23.617Z,11.75
2018-05-26T02:46:26.829Z,10.35
2018-05-26T02:47:30.859Z,9.85
2018-05-26T02:48:34.096Z,11.50
2018-05-26T02:49:37.303Z,10.82
2018-05-26T02:50:41.290Z,11.07
2018-05-26T02:51:44.512Z,11.38
2018-05-26T02:52:47.740Z,11.82
2018-05-26T02:53:50.973Z,11.43
2018-05-26T02:54:54.191Z,11.18
2018-05-26T02:55:57.410Z,11.57
2018-05-26T02:57:01.422Z,12.45
2018-05-26T02:58:05.404Z,11.45
2018-05-26T02:59:08.718Z,12.73
2018-05-26T03:00:12.006Z,11.63
2018-05-26T03:01:15.995Z,12.10
2018-05-26T03:02:19.965Z,10.85
2018-05-26T03:03:23.214Z,11.77
2018-05-26T03:04:32.183Z,11.02
2018-05-26T03:05:41.767Z,12.20
2018-05-26T03:06:50.726Z,10.95
2018-05-26T03:07:59.574Z,12.75
2018-05-26T03:09:08.459Z,11.75
2018-05-26T03:10:17.247Z,11.88
2018-05-26T03:11:26.163Z,12.10
2018-05-26T03:12:35.086Z,11.55
2018-05-26T03:13:44.012Z,11.82
2018-05-26T03:14:46.762Z,11.80
2018-05-26T03:16:06.803Z,12.30
2018-05-26T03:17:10.962Z,11.60
2018-05-26T03:18:14.970Z,12.85
2018-05-26T03:19:18.201Z,12.93
2018-05-26T03:20:21.421Z,12.20
2018-05-26T03:21:24.766Z,11.93
2018-05-26T03:22:28.003Z,12.73
2018-05-26T03:23:31.271Z,12.25
2018-05-26T03:24:34.501Z,11.95
2018-05-26T03:25:37.736Z,13.80
2018-05-26T03:26:40.961Z,11.88
2018-05-26T03:27:44.963Z,13.30
2018-05-26T03:28:48.186Z,13.07
2018-05-26T03:29:51.420Z,12.00
2018-05-26T03:30:55.414Z,12.00
2018-05-26T03:31:59.418Z,12.40
2018-05-26T03:33:03.386Z,12.60
2018-05-26T03:34:08.140Z,12.73
2018-05-26T03:35:12.144Z,12.43
2018-05-26T03:36:16.233Z,11.60
2018-05-26T03:37:19.403Z,12.55
2018-05-26T03:38:22.630Z,11.98
2018-05-26T03:39:25.926Z,10.90
2018-05-26T03:40:29.144Z,12.45
2018-05-26T03:41:33.166Z,11.88
2018-05-26T03:42:37.160Z,12.73
2018-05-26T03:43:40.392Z,12.13
2018-05-26T03:44:43.621Z,11.55
2018-05-26T03:45:46.845Z,11.57
2018-05-26T03:46:50.074Z,11.90
2018-05-26T03:47:53.300Z,11.35
2018-05-26T03:48:56.561Z,11.27
2018-05-26T03:50:00.562Z,11.65
2018-05-26T03:51:03.799Z,12.07
2018-05-26T03:52:07.014Z,11.25
2018-05-26T03:53:11.011Z,13.15
2018-05-26T03:54:14.250Z,12.75
2018-05-26T03:55:38.330Z,11.27
2018-05-26T03:56:53.408Z,12.82
2018-05-26T03:58:08.532Z,13.32
2018-05-26T03:59:19.502Z,12.23
2018-05-26T04:00:22.712Z,12.15
2018-05-26T04:01:25.959Z,12.88
2018-05-26T04:02:29.174Z,13.82
2018-05-26T04:03:32.408Z,12.50
2018-05-26T04:04:36.390Z,12.98
2018-05-26T04:05:39.641Z,12.63
2018-05-26T04:06:42.854Z,13.43
2018-05-26T04:07:46.084Z,13.13
2018-05-26T04:08:49.877Z,15.02
2018-05-26T04:09:53.139Z,14.25
2018-05-26T04:10:57.118Z,14.73
2018-05-26T04:12:01.124Z,16.00
2018-05-26T04:13:05.131Z,16.00
2018-05-26T04:14:09.146Z,14.63
2018-05-26T04:15:13.123Z,16.70
2018-05-26T04:16:17.123Z,16.95
2018-05-26T04:17:21.164Z,16.17
2018-05-26T04:18:24.384Z,15.85
2018-05-26T04:19:27.667Z,16.55
2018-05-26T04:20:30.938Z,15.93
2018-05-26T04:21:34.160Z,16.12
2018-05-26T04:22:38.171Z,15.57
2018-05-26T04:23:42.158Z,15.73
2018-05-26T04:24:45.446Z,17.45
2018-05-26T04:25:50.163Z,14.70
2018-05-26T04:26:53.382Z,16.23
2018-05-26T04:27:56.626Z,15.88
2018-05-26T04:28:59.846Z,16.10
2018-05-26T04:30:03.060Z,16.15
2018-05-26T04:31:06.316Z,15.55
2018-05-26T04:32:09.510Z,17.12
2018-05-26T04:33:12.735Z,15.60
2018-05-26T04:34:16.009Z,18.65
2018-05-26T04:35:19.242Z,16.83
2018-05-26T04:36:22.551Z,16.95
2018-05-26T04:37:25.786Z,15.70
2018-05-26T04:38:29.828Z,16.65
2018-05-26T04:39:33.073Z,16.55
2018-05-26T04:40:36.274Z,16.30
2018-05-26T04:41:39.533Z,16.90
2018-05-26T04:42:43.531Z,16.20
2018-05-26T04:43:47.654Z,16.62
2018-05-26T04:44:50.944Z,15.90
2018-05-26T04:45:54.212Z,16.50
2018-05-26T04:46:58.233Z,16.23
2018-05-26T04:48:01.461Z,16.27
2018-05-26T04:49:04.708Z,14.63
2018-05-26T04:50:07.996Z,15.15
2018-05-26T04:51:11.222Z,15.93
2018-05-26T04:52:14.449Z,17.37
2018-05-26T04:53:17.712Z,15.00
2018-05-26T04:54:21.092Z,15.15
2018-05-26T04:55:24.298Z,15.35
2018-05-26T04:56:27.551Z,14.98
2018-05-26T04:57:31.584Z,16.05
2018-05-26T04:58:34.816Z,15.32
2018-05-26T04:59:39.541Z,15.48
2018-05-26T05:00:44.271Z,15.73
2018-05-26T05:01:47.492Z,14.90
2018-05-26T05:02:50.727Z,17.98
2018-05-26T05:03:54.048Z,16.77
2018-05-26T05:04:57.282Z,16.73
2018-05-26T05:06:00.521Z,17.02
2018-05-26T05:07:03.773Z,17.20
2018-05-26T05:08:07.759Z,17.33
2018-05-26T05:09:11.080Z,17.20
2018-05-26T05:10:14.318Z,18.15
2018-05-26T05:11:17.567Z,17.20
2018-05-26T05:12:20.843Z,17.75
2018-05-26T05:13:24.062Z,16.62
2018-05-26T05:14:27.299Z,17.67
2018-05-26T05:15:30.527Z,17.50
2018-05-26T05:16:34.508Z,18.40
2018-05-26T05:17:37.738Z,15.73
2018-05-26T05:18:41.768Z,17.70
2018-05-26T05:19:44.999Z,17.50
2018-05-26T05:20:48.225Z,16.25
2018-05-26T05:21:51.445Z,16.10
2018-05-26T05:22:54.673Z,16.02
2018-05-26T05:23:58.698Z,16.30
2018-05-26T05:25:02.712Z,17.17
2018-05-26T05:26:05.953Z,17.10
2018-05-26T05:27:09.199Z,18.60
2018-05-26T05:28:12.415Z,16.52
2018-05-26T05:29:15.635Z,16.67
2018-05-26T05:30:18.878Z,16.77
2018-05-26T05:31:22.099Z,17.25
2018-05-26T05:32:25.587Z,18.37
2018-05-26T05:33:28.802Z,17.23
2018-05-26T05:34:32.038Z,16.00
2018-05-26T05:35:35.361Z,16.55
2018-05-26T05:36:38.623Z,17.15
2018-05-26T05:37:41.866Z,17.00
2018-05-26T05:38:45.097Z,17.25
2018-05-26T05:39:48.331Z,17.00
2018-05-26T05:40:53.063Z,16.87
2018-05-26T05:41:57.055Z,15.43
2018-05-26T05:43:01.117Z,16.17
2018-05-26T05:44:04.515Z,16.00
2018-05-26T05:45:07.959Z,16.02
2018-05-26T05:46:11.313Z,17.17
2018-05-26T05:47:14.507Z,17.30
2018-05-26T05:48:18.508Z,16.75
2018-05-26T05:49:22.508Z,16.83
2018-05-26T05:50:25.750Z,17.73
2018-05-26T05:51:28.970Z,15.38
2018-05-26T05:52:32.990Z,15.90
2018-05-26T05:53:36.227Z,14.93
2018-05-26T05:54:39.470Z,15.27
2018-05-26T05:55:42.680Z,15.10
2018-05-26T05:56:45.919Z,16.10
2018-05-26T05:57:49.883Z,14.48
2018-05-26T05:58:53.195Z,14.23
2018-05-26T05:59:57.200Z,16.17
2018-05-26T06:01:01.236Z,15.45
2018-05-26T06:02:04.463Z,15.10
2018-05-26T06:03:07.669Z,14.30
2018-05-26T06:04:11.685Z,13.93
2018-05-26T06:05:14.910Z,14.05
2018-05-26T06:06:18.135Z,15.02
2018-05-26T06:07:22.118Z,13.68
2018-05-26T06:08:26.114Z,13.27
2018-05-26T06:09:29.331Z,13.95
2018-05-26T06:10:32.573Z,13.65
2018-05-26T06:11:36.565Z,13.00
2018-05-26T06:12:39.781Z,14.00
2018-05-26T06:13:43.771Z,13.80
2018-05-26T06:14:47.767Z,14.50
2018-05-26T06:15:51.783Z,14.10
2018-05-26T06:16:54.987Z,15.10
2018-05-26T06:17:58.234Z,15.68
2018-05-26T06:19:02.234Z,13.90
2018-05-26T06:20:06.258Z,13.60
2018-05-26T06:21:10.231Z,15.23
2018-05-26T06:22:14.223Z,14.02
2018-05-26T06:23:17.499Z,13.18
2018-05-26T06:24:22.243Z,14.50
2018-05-26T06:25:26.270Z,14.15
2018-05-26T06:26:29.572Z,15.00
2018-05-26T06:27:32.712Z,13.32
2018-05-26T06:28:36.734Z,15.73
2018-05-26T06:29:39.991Z,13.65
2018-05-26T06:30:44.013Z,14.25
2018-05-26T06:31:48.040Z,13.80
2018-05-26T06:32:51.995Z,13.90
2018-05-26T06:33:56.098Z,15.57
2018-05-26T06:34:59.345Z,14.15
2018-05-26T06:36:02.586Z,15.85
2018-05-26T06:37:05.834Z,15.57
2018-05-26T06:38:09.035Z,15.65
2018-05-26T06:39:13.035Z,15.57
2018-05-26T06:40:17.033Z,15.05
2018-05-26T06:41:21.016Z,16.00
2018-05-26T06:42:25.035Z,15.18
2018-05-26T06:43:29.031Z,16.83
2018-05-26T06:44:33.023Z,16.83
2018-05-26T06:45:36.270Z,16.02
2018-05-26T06:46:39.506Z,16.83
2018-05-26T06:47:43.503Z,16.70
2018-05-26T06:48:47.503Z,17.48
2018-05-26T06:49:51.493Z,17.83
2018-05-26T06:50:54.721Z,15.50
2018-05-26T06:51:57.935Z,17.30
2018-05-26T06:53:01.175Z,15.40
2018-05-26T06:54:04.430Z,17.35
2018-05-26T06:55:08.443Z,16.87
2018-05-26T06:56:11.773Z,17.40
2018-05-26T06:57:15.002Z,16.75
2018-05-26T06:58:19.008Z,16.95
2018-05-26T06:59:23.226Z,17.15
2018-05-26T07:00:26.482Z,17.15
2018-05-26T07:01:31.511Z,17.95
2018-05-26T07:02:34.747Z,16.92
2018-05-26T07:03:38.024Z,17.58
2018-05-26T07:04:41.227Z,17.45
2018-05-26T07:05:44.495Z,16.75
2018-05-26T07:06:47.714Z,15.77
2018-05-26T07:07:50.943Z,17.75
2018-05-26T07:08:54.163Z,15.98
2018-05-26T07:09:57.520Z,16.10
2018-05-26T07:11:00.738Z,16.98
2018-05-26T07:12:05.754Z,16.77
2018-05-26T07:13:08.981Z,15.63
2018-05-26T07:14:13.014Z,16.42
2018-05-26T07:15:16.277Z,16.17
2018-05-26T07:16:20.240Z,15.98
2018-05-26T07:17:23.555Z,17.08
2018-05-26T07:18:26.790Z,16.08
2018-05-26T07:19:30.014Z,16.73
2018-05-26T07:20:34.049Z,17.50
2018-05-26T07:21:37.263Z,15.82
2018-05-26T07:22:40.929Z,16.85
2018-05-26T07:23:45.342Z,16.50
2018-05-26T07:24:49.349Z,16.40
2018-05-26T07:25:53.161Z,17.12
2018-05-26T07:26:56.908Z,16.98
2018-05-26T07:28:00.172Z,16.40
2018-05-26T07:29:03.441Z,16.33
2018-05-26T07:30:06.641Z,15.68
2018-05-26T07:31:10.643Z,15.10
2018-05-26T07:32:14.632Z,16.08
2018-05-26T07:33:18.734Z,15.32
2018-05-26T07:34:22.107Z,15.75
2018-05-26T07:35:25.331Z,15.68
2018-05-26T07:36:28.621Z,16.00
2018-05-26T07:37:31.883Z,15.02
2018-05-26T07:38:36.612Z,17.08
2018-05-26T07:39:39.885Z,16.08
2018-05-26T07:40:43.890Z,15.27
2018-05-26T07:41:47.884Z,15.38
2018-05-26T07:42:51.233Z,15.77
2018-05-26T07:43:54.487Z,16.83
2018-05-26T07:44:58.231Z,16.35
2018-05-26T07:46:01.454Z,18.33
2018-05-26T07:47:04.683Z,15.02
2018-05-26T07:48:07.963Z,16.08
2018-05-26T07:49:11.183Z,16.33
2018-05-26T07:50:15.184Z,16.45
2018-05-26T07:51:18.451Z,17.30
2018-05-26T07:52:21.691Z,15.60
2018-05-26T07:53:24.970Z,16.35
2018-05-26T07:54:28.223Z,15.90
2018-05-26T07:55:31.475Z,16.40
2018-05-26T07:56:34.737Z,16.52
2018-05-26T07:57:37.991Z,16.33
2018-05-26T07:58:41.204Z,15.43
2018-05-26T07:59:44.437Z,16.92
2018-05-26T08:00:48.438Z,15.77
2018-05-26T08:01:52.456Z,13.60
2018-05-26T08:02:55.767Z,14.87
2018-05-26T08:03:59.211Z,15.65
2018-05-26T08:05:03.188Z,14.90
2018-05-26T08:06:06.552Z,16.08
2018-05-26T08:07:09.783Z,17.02
2018-05-26T08:08:13.021Z,16.58
2018-05-26T08:09:16.253Z,17.48
2018-05-26T08:10:19.497Z,15.90
2018-05-26T08:11:22.732Z,15.07
2018-05-26T08:12:25.992Z,15.38
2018-05-26T08:13:29.996Z,15.20
2018-05-26T08:14:33.996Z,16.98
2018-05-26T08:15:37.999Z,14.43
2018-05-26T08:16:41.317Z,15.65
2018-05-26T08:17:44.579Z,15.35
2018-05-26T08:18:48.602Z,16.02
2018-05-26T08:19:51.888Z,16.30
2018-05-26T08:20:55.103Z,14.77
2018-05-26T08:21:58.326Z,16.55
2018-05-26T08:23:01.631Z,16.90
2018-05-26T08:24:04.948Z,15.25
2018-05-26T08:25:08.165Z,15.07
2018-05-26T08:26:12.153Z,15.45
2018-05-26T08:27:15.490Z,16.02
2018-05-26T08:28:18.684Z,15.85
2018-05-26T08:29:21.913Z,15.75
2018-05-26T08:30:25.937Z,14.98
2018-05-26T08:31:29.941Z,16.27
2018-05-26T08:32:33.253Z,14.85
2018-05-26T08:33:36.513Z,14.70
2018-05-26T08:34:39.750Z,16.52
2018-05-26T08:35:43.017Z,14.82
2018-05-26T08:36:47.017Z,15.38
2018-05-26T08:37:50.228Z,15.10
2018-05-26T08:38:54.249Z,14.57
2018-05-26T08:39:57.476Z,15.20
2018-05-26T08:41:00.697Z,15.82
2018-05-26T08:42:04.725Z,14.70
2018-05-26T08:43:08.021Z,14.82
2018-05-26T08:44:11.357Z,16.23
2018-05-26T08:45:14.629Z,14.50
2018-05-26T08:46:17.903Z,14.52
2018-05-26T08:47:21.142Z,14.45
2018-05-26T08:48:24.448Z,14.80
2018-05-26T08:49:27.708Z,15.35
2018-05-26T08:50:31.871Z,15.65
2018-05-26T08:51:35.089Z,14.48
2018-05-26T08:52:38.322Z,15.10
2018-05-26T08:53:41.567Z,15.48
2018-05-26T08:54:44.852Z,15.82
2018-05-26T08:55:48.084Z,15.50
2018-05-26T08:56:52.090Z,15.35
2018-05-26T08:57:55.307Z,14.43
2018-05-26T08:58:58.567Z,16.23
2018-05-26T09:00:02.587Z,14.45
2018-05-26T09:01:05.844Z,14.60
2018-05-26T09:02:09.064Z,16.05
2018-05-26T09:03:12.303Z,14.90
2018-05-26T09:04:15.562Z,13.77
2018-05-26T09:05:18.788Z,15.07
2018-05-26T09:06:22.784Z,15.13
2018-05-26T09:07:26.059Z,14.35
2018-05-26T09:08:29.270Z,14.40
2018-05-26T09:09:32.510Z,15.23
2018-05-26T09:10:35.757Z,14.50
2018-05-26T09:11:38.957Z,15.05
2018-05-26T09:12:42.186Z,13.62
2018-05-26T09:13:46.206Z,13.48
2018-05-26T09:14:49.427Z,13.90
2018-05-26T09:15:52.659Z,13.40
2018-05-26T09:16:56.651Z,13.35
2018-05-26T09:18:00.646Z,14.27
2018-05-26T09:19:04.708Z,13.82
2018-05-26T09:20:07.923Z,14.05
2018-05-26T09:21:11.198Z,14.82
2018-05-26T09:22:14.442Z,15.35
2018-05-26T09:23:17.703Z,16.20
2018-05-26T09:24:20.940Z,14.85
2018-05-26T09:25:25.005Z,15.00
2018-05-26T09:26:28.181Z,14.73
2018-05-26T09:27:31.444Z,14.68
2018-05-26T09:28:35.428Z,14.27
2018-05-26T09:29:39.453Z,15.18
2018-05-26T09:30:42.698Z,14.68
2018-05-26T09:31:45.943Z,14.30
2018-05-26T09:32:49.191Z,14.60
2018-05-26T09:33:53.197Z,13.30
2018-05-26T09:34:57.180Z,22.15
2018-05-26T09:36:01.201Z,20.42
2018-05-26T09:37:05.206Z,19.90
2018-05-26T09:38:08.424Z,22.65
2018-05-26T09:39:11.676Z,50.75
2018-05-26T09:40:14.922Z,29.50
2018-05-26T09:41:18.122Z,19.27
2018-05-26T09:42:22.132Z,17.45
2018-05-26T09:43:25.430Z,14.20
2018-05-26T09:44:28.628Z,13.90
2018-05-26T09:45:31.865Z,13.70
2018-05-26T09:46:35.078Z,13.05
2018-05-26T09:47:38.300Z,12.27
2018-05-26T09:48:41.508Z,13.48
2018-05-26T09:49:44.808Z,15.02
2018-05-26T09:50:48.818Z,14.87
2018-05-26T09:51:52.077Z,13.23
2018-05-26T09:52:55.275Z,13.80
2018-05-26T09:53:58.620Z,13.35
2018-05-26T09:55:01.870Z,12.40
2018-05-26T09:56:05.170Z,12.88
2018-05-26T09:57:09.112Z,13.18
2018-05-26T09:58:13.101Z,12.65
2018-05-26T09:59:16.450Z,12.20
2018-05-26T10:00:19.683Z,13.90
2018-05-26T10:01:24.503Z,14.10
2018-05-26T10:02:28.503Z,14.32
2018-05-26T10:03:32.516Z,14.10
2018-05-26T10:04:36.520Z,12.93
2018-05-26T10:05:39.751Z,12.35
2018-05-26T10:06:42.979Z,11.35
2018-05-26T10:07:46.972Z,11.88
2018-05-26T10:08:50.995Z,12.45
2018-05-26T10:09:55.044Z,13.38
2018-05-26T10:10:58.236Z,13.65
2018-05-26T10:12:01.534Z,14.00
2018-05-26T10:13:04.784Z,12.98
2018-05-26T10:14:08.008Z,14.98
2018-05-26T10:15:12.020Z,14.82
2018-05-26T10:16:16.003Z,14.85
2018-05-26T10:17:19.254Z,14.52
2018-05-26T10:18:22.473Z,14.50
2018-05-26T10:19:26.473Z,14.90
2018-05-26T10:20:30.488Z,12.48
2018-05-26T10:21:34.496Z,13.68
2018-05-26T10:22:37.736Z,14.38
2018-05-26T10:23:40.955Z,13.75
2018-05-26T10:24:44.183Z,14.02
2018-05-26T10:25:47.414Z,14.70
2018-05-26T10:26:51.421Z,15.23
2018-05-26T10:27:55.437Z,14.55
2018-05-26T10:28:58.655Z,14.90
2018-05-26T10:30:01.931Z,15.52
2018-05-26T10:31:05.107Z,14.80
2018-05-26T10:32:08.329Z,14.70
2018-05-26T10:33:11.613Z,13.73
2018-05-26T10:34:14.852Z,14.15
2018-05-26T10:35:18.057Z,14.25
2018-05-26T10:36:21.342Z,13.13
2018-05-26T10:37:24.544Z,14.52
2018-05-26T10:38:27.787Z,16.12
2018-05-26T10:39:31.027Z,14.15
2018-05-26T10:40:35.006Z,15.18
2018-05-26T10:41:38.228Z,15.75
2018-05-26T10:42:41.461Z,14.90
2018-05-26T10:43:44.678Z,12.77
2018-05-26T10:44:48.658Z,14.13
2018-05-26T10:46:04.591Z,12.37
2018-05-26T10:47:07.871Z,12.10
2018-05-26T10:48:11.837Z,11.57
2018-05-26T10:49:15.839Z,12.93
2018-05-26T10:50:19.830Z,14.27
2018-05-26T10:51:23.631Z,13.70
2018-05-26T10:52:27.633Z,14.45
2018-05-26T10:53:31.637Z,14.82
2018-05-26T10:54:35.629Z,13.90
2018-05-26T10:55:39.624Z,14.30
2018-05-26T10:56:42.939Z,13.90
2018-05-26T10:57:46.189Z,13.80
2018-05-26T10:58:49.524Z,13.82
2018-05-26T10:59:52.717Z,13.85
2018-05-26T11:00:55.967Z,14.65
2018-05-26T11:01:59.186Z,13.25
2018-05-26T11:03:02.414Z,13.88
2018-05-26T11:04:06.477Z,14.18
2018-05-26T11:05:09.715Z,13.82
2018-05-26T11:06:13.753Z,11.38
2018-05-26T11:07:17.007Z,12.60
2018-05-26T11:08:21.011Z,13.07
2018-05-26T11:09:24.259Z,14.10
2018-05-26T11:10:27.482Z,12.45
2018-05-26T11:11:30.716Z,12.20
2018-05-26T11:12:33.965Z,13.27
2018-05-26T11:13:37.226Z,11.18
2018-05-26T11:14:40.566Z,11.30
2018-05-26T11:15:43.859Z,11.40
2018-05-26T11:16:47.090Z,12.07
2018-05-26T11:17:50.491Z,10.60
2018-05-26T11:18:53.641Z,11.45
2018-05-26T11:19:56.831Z,10.75
2018-05-26T11:21:00.067Z,10.98
2018-05-26T11:22:03.506Z,9.93
2018-05-26T11:23:06.728Z,8.93
2018-05-26T11:24:10.061Z,9.40
2018-05-26T11:25:14.076Z,11.20
2018-05-26T11:26:17.442Z,11.57
2018-05-26T11:27:20.628Z,11.35
2018-05-26T11:28:23.864Z,12.15
2018-05-26T11:29:27.089Z,9.93
2018-05-26T11:30:31.062Z,9.15
2018-05-26T11:31:34.293Z,10.32
2018-05-26T11:32:37.555Z,9.63
2018-05-26T11:33:41.583Z,9.38
2018-05-26T11:34:44.842Z,10.18
2018-05-26T11:35:48.824Z,10.57
2018-05-26T11:36:52.820Z,10.25
2018-05-26T11:37:56.060Z,9.85
2018-05-26T11:38:59.284Z,10.90
2018-05-26T11:40:02.592Z,9.80
2018-05-26T11:41:06.615Z,11.55
2018-05-26T11:42:09.837Z,11.07
2018-05-26T11:43:13.058Z,10.40
2018-05-26T11:44:16.286Z,10.32
2018-05-26T11:45:19.521Z,10.20
2018-05-26T11:46:23.494Z,10.27
2018-05-26T11:47:26.736Z,9.68
2018-05-26T11:48:29.976Z,9.55
2018-05-26T11:49:33.985Z,9.55
2018-05-26T11:50:37.992Z,8.15
2018-05-26T11:51:41.167Z,8.80
2018-05-26T11:52:45.163Z,9.32
2018-05-26T11:53:49.156Z,8.43
2018-05-26T11:54:52.387Z,10.57
2018-05-26T11:55:55.604Z,9.93
2018-05-26T11:56:58.832Z,9.05
2018-05-26T11:58:02.118Z,9.35
2018-05-26T11:59:05.369Z,9.75
2018-05-26T12:00:09.400Z,9.65
2018-05-26T12:01:12.622Z,8.75
2018-05-26T12:02:15.887Z,10.02
2018-05-26T12:03:19.967Z,9.40
2018-05-26T12:04:23.936Z,9.27
2018-05-26T12:05:27.947Z,9.15
2018-05-26T12:06:31.941Z,8.07
2018-05-26T12:07:35.161Z,7.97
2018-05-26T12:08:38.377Z,7.75
2018-05-26T12:09:41.659Z,7.82
2018-05-26T12:10:44.951Z,8.43
2018-05-26T12:11:48.115Z,7.95
2018-05-26T12:12:51.366Z,7.75
2018-05-26T12:13:54.572Z,8.57
2018-05-26T12:14:57.831Z,6.50
2018-05-26T12:16:01.790Z,6.85
2018-05-26T12:17:05.042Z,6.97
2018-05-26T12:18:08.297Z,7.90
2018-05-26T12:19:12.242Z,6.62
2018-05-26T12:20:15.508Z,7.18
2018-05-26T12:21:18.728Z,7.05
2018-05-26T12:22:21.951Z,6.53
2018-05-26T12:23:25.159Z,5.90
2018-05-26T12:24:28.440Z,6.07
2018-05-26T12:25:31.653Z,6.37
2018-05-26T12:26:34.883Z,6.00
2018-05-26T12:27:38.086Z,6.00
2018-05-26T12:28:41.308Z,6.72
2018-05-26T12:29:44.537Z,5.97
2018-05-26T12:30:47.768Z,7.05
2018-05-26T12:31:51.086Z,5.65
2018-05-26T12:32:55.076Z,5.70
2018-05-26T12:33:59.114Z,5.78
2018-05-26T12:35:02.273Z,5.78
2018-05-26T12:36:05.485Z,5.18
2018-05-26T12:37:08.716Z,4.65
2018-05-26T12:38:12.719Z,4.40
2018-05-26T12:39:16.684Z,5.28
2018-05-26T12:40:19.915Z,4.25
2018-05-26T12:41:24.151Z,4.97
2018-05-26T12:42:27.377Z,5.00
2018-05-26T12:43:30.645Z,4.65
2018-05-26T12:44:33.854Z,4.40
2018-05-26T12:45:37.071Z,5.50
2018-05-26T12:46:40.275Z,4.60
2018-05-26T12:47:43.510Z,4.45
2018-05-26T12:48:47.506Z,3.83
2018-05-26T12:49:50.741Z,4.40
2018-05-26T12:50:53.953Z,5.00
2018-05-26T12:51:57.179Z,5.05
2018-05-26T12:53:00.418Z,4.50
2018-05-26T12:54:03.630Z,5.05
2018-05-26T12:55:07.611Z,4.87
2018-05-26T12:56:10.849Z,4.70
2018-05-26T12:57:14.066Z,4.50
2018-05-26T12:58:17.287Z,4.10
2018-05-26T12:59:20.579Z,4.68
2018-05-26T13:00:23.782Z,5.12
2018-05-26T13:01:27.011Z,4.10
2018-05-26T13:02:31.766Z,3.55
2018-05-26T13:03:34.959Z,3.47
2018-05-26T13:04:38.172Z,4.70
2018-05-26T13:05:41.410Z,4.12
2018-05-26T13:06:44.625Z,4.35
2018-05-26T13:07:47.841Z,3.80
2018-05-26T13:08:51.152Z,3.22
2018-05-26T13:09:54.358Z,3.08
2018-05-26T13:10:57.602Z,2.90
2018-05-26T13:12:01.575Z,3.75
2018-05-26T13:13:04.789Z,3.67
2018-05-26T13:14:08.763Z,3.50
2018-05-26T13:15:11.966Z,3.72
2018-05-26T13:16:15.366Z,4.18
2018-05-26T13:17:19.362Z,3.40
2018-05-26T13:18:23.362Z,3.42
2018-05-26T13:19:27.337Z,3.55
2018-05-26T13:20:30.553Z,3.42
2018-05-26T13:21:33.758Z,3.30
2018-05-26T13:22:37.055Z,3.67
2018-05-26T13:23:40.307Z,3.55
2018-05-26T13:24:43.531Z,3.28
2018-05-26T13:25:46.738Z,3.20
2018-05-26T13:26:49.972Z,2.85
2018-05-26T13:27:53.227Z,3.58
2018-05-26T13:28:56.564Z,3.60
2018-05-26T13:29:59.746Z,2.83
2018-05-26T13:31:02.984Z,3.35
2018-05-26T13:32:06.214Z,3.15
2018-05-26T13:33:09.414Z,3.40
2018-05-26T13:34:12.674Z,3.10
2018-05-26T13:35:15.907Z,3.10
2018-05-26T13:36:19.859Z,2.70
2018-05-26T13:37:23.132Z,3.20
2018-05-26T13:38:26.382Z,2.80
2018-05-26T13:39:29.593Z,2.90
2018-05-26T13:40:32.853Z,2.22
2018-05-26T13:41:36.850Z,2.85
2018-05-26T13:42:40.062Z,2.60
2018-05-26T13:43:43.269Z,2.90
2018-05-26T13:44:46.499Z,3.80
2018-05-26T13:45:49.826Z,3.12
2018-05-26T13:46:53.101Z,3.53
2018-05-26T13:47:56.431Z,3.62
2018-05-26T13:49:00.430Z,2.95